createdAt,value
2022-11-24T00:02:19.910Z,100436.66
2022-11-24T00:05:21.337Z,100443.47
2022-11-24T00:08:22.701Z,100440.03
2022-11-24T00:11:27.106Z,100445.22
2022-11-24T00:14:28.453Z,100444.38
2022-11-24T00:17:29.782Z,100441.88
2022-11-24T00:20:31.121Z,100441.88
2022-11-24T00:23:32.982Z,100450.41
2022-11-24T00:26:35.903Z,100458.06
2022-11-24T00:29:37.583Z,100448.78
2022-11-24T00:32:38.927Z,100453.00
2022-11-24T00:35:40.254Z,100464.91
2022-11-24T00:38:41.670Z,100456.38
2022-11-24T00:41:43.225Z,100462.28
2022-11-24T00:44:44.574Z,100457.22
2022-11-24T00:47:45.928Z,100457.22
2022-11-24T00:51:05.070Z,100462.28
2022-11-24T00:54:06.474Z,100462.28
2022-11-24T00:57:07.841Z,100467.38
2022-11-24T01:00:09.607Z,100475.00
2022-11-24T01:03:12.635Z,100463.91
2022-11-24T01:06:17.075Z,100469.88
2022-11-24T01:09:18.425Z,100468.19
2022-11-24T01:12:19.868Z,100475.03
2022-11-24T01:15:21.253Z,100475.03
2022-11-24T01:18:22.596Z,100478.44
2022-11-24T01:21:24.508Z,100478.44
2022-11-24T01:24:25.852Z,100484.38
2022-11-24T01:27:27.249Z,100483.53
2022-11-24T01:30:28.648Z,100492.09
2022-11-24T01:33:30.209Z,100487.84
2022-11-24T01:36:31.630Z,100478.47
2022-11-24T01:39:32.969Z,100481.88
2022-11-24T01:42:46.743Z,100488.72
2022-11-24T01:45:48.260Z,100489.53
2022-11-24T01:49:08.301Z,100494.66
2022-11-24T01:52:18.422Z,100503.28
2022-11-24T01:55:46.158Z,100500.88
2022-11-24T01:58:48.559Z,100497.53
2022-11-24T02:01:51.637Z,100499.47
2022-11-24T02:04:53.948Z,100509.13
2022-11-24T02:07:59.604Z,100511.00
2022-11-24T02:11:04.084Z,100517.97
2022-11-24T02:14:07.457Z,100518.06
2022-11-24T02:17:09.574Z,100517.72
2022-11-24T02:20:13.043Z,100516.00
2022-11-24T02:23:29.579Z,100523.25
2022-11-24T02:26:33.858Z,100523.97
2022-11-24T02:29:35.232Z,100538.47
2022-11-24T02:32:40.026Z,100529.03
2022-11-24T02:35:42.342Z,100525.69
2022-11-24T02:38:43.694Z,100532.59
2022-11-24T02:41:58.887Z,100526.78
2022-11-24T02:45:01.155Z,100528.56
2022-11-24T02:48:02.512Z,100531.19
2022-11-24T02:51:04.032Z,100532.09
2022-11-24T02:54:05.405Z,100528.78
2022-11-24T02:57:06.752Z,100534.97
2022-11-24T03:00:08.965Z,100534.16
2022-11-24T03:03:10.397Z,100546.78
2022-11-24T03:06:11.912Z,100551.72
2022-11-24T03:09:13.352Z,100554.19
2022-11-24T03:12:14.781Z,100556.72
2022-11-24T03:15:16.189Z,100554.94
2022-11-24T03:18:17.546Z,100561.81
2022-11-24T03:21:19.305Z,100562.56
2022-11-24T03:24:20.761Z,100562.50
2022-11-24T03:27:22.087Z,100571.75
2022-11-24T03:30:23.490Z,100575.94
2022-11-24T03:33:24.838Z,100579.28
2022-11-24T03:36:26.210Z,100578.34
2022-11-24T03:39:27.558Z,100585.09
2022-11-24T03:42:28.883Z,100596.09
2022-11-24T03:45:45.547Z,100584.19
2022-11-24T03:48:47.797Z,100591.78
2022-11-24T03:51:49.728Z,100595.13
2022-11-24T03:54:51.099Z,100601.09
2022-11-24T03:57:52.469Z,100603.50
2022-11-24T04:00:54.607Z,100610.94
2022-11-24T04:03:55.948Z,100614.28
2022-11-24T04:06:57.304Z,100613.28
2022-11-24T04:09:58.641Z,100608.94
2022-11-24T04:12:59.984Z,100621.56
2022-11-24T04:16:05.651Z,100615.41
2022-11-24T04:19:07.568Z,100624.63
2022-11-24T04:22:08.941Z,100633.00
2022-11-24T04:25:10.649Z,100625.97
2022-11-24T04:28:11.990Z,100624.97
2022-11-24T04:31:13.461Z,100631.66
2022-11-24T04:34:14.974Z,100640.00
2022-11-24T04:37:16.342Z,100637.31
2022-11-24T04:40:17.763Z,100638.03
2022-11-24T04:43:19.165Z,100644.75
2022-11-24T04:46:20.566Z,100639.56
2022-11-24T04:49:21.946Z,100642.88
2022-11-24T04:52:24.700Z,100644.56
2022-11-24T04:55:26.110Z,100643.75
2022-11-24T04:58:27.558Z,100643.69
2022-11-24T05:01:28.982Z,100645.44
2022-11-24T05:04:30.413Z,100650.56
2022-11-24T05:07:32.374Z,100666.75
2022-11-24T05:10:34.259Z,100668.41
2022-11-24T05:13:35.591Z,100670.09
2022-11-24T05:16:36.969Z,100674.34
2022-11-24T05:19:38.372Z,100676.03
2022-11-24T05:22:39.773Z,100694.78
2022-11-24T05:25:47.252Z,100675.94
2022-11-24T05:28:49.050Z,100689.66
2022-11-24T05:31:50.441Z,100689.06
2022-11-24T05:34:51.780Z,100686.78
2022-11-24T05:37:53.221Z,100679.34
2022-11-24T05:40:54.584Z,100697.31
2022-11-24T05:43:55.921Z,100692.28
2022-11-24T05:46:57.328Z,100683.19
2022-11-24T05:49:58.692Z,100683.31
2022-11-24T05:53:05.121Z,100697.22
2022-11-24T05:56:06.896Z,100700.88
2022-11-24T05:59:09.964Z,100707.88
2022-11-24T06:02:11.762Z,100713.53
2022-11-24T06:05:13.197Z,100716.88
2022-11-24T06:08:15.013Z,100721.13
2022-11-24T06:11:16.361Z,100715.19
2022-11-24T06:14:17.724Z,100713.59
2022-11-24T06:17:19.078Z,100716.41
2022-11-24T06:20:20.489Z,100725.00
2022-11-24T06:23:21.860Z,100731.91
2022-11-24T06:26:23.289Z,100735.34
2022-11-24T06:29:24.651Z,100740.56
2022-11-24T06:32:26.029Z,100746.59
2022-11-24T06:35:27.498Z,100737.22
2022-11-24T06:38:29.259Z,100749.16
2022-11-24T06:41:30.655Z,100755.09
2022-11-24T06:44:32.320Z,100759.44
2022-11-24T06:47:34.039Z,100759.31
2022-11-24T06:50:35.480Z,100769.47
2022-11-24T06:53:38.438Z,100760.09
2022-11-24T06:56:39.868Z,100768.63
2022-11-24T06:59:41.199Z,100767.72
2022-11-24T07:02:45.917Z,100768.59
2022-11-24T07:05:47.708Z,100782.25
2022-11-24T07:08:49.643Z,100780.56
2022-11-24T07:11:51.005Z,100783.09
2022-11-24T07:14:52.364Z,100787.34
2022-11-24T07:17:53.680Z,100784.72
2022-11-24T07:20:55.436Z,100794.94
2022-11-24T07:23:57.719Z,100797.38
2022-11-24T07:26:59.060Z,100802.41
2022-11-24T07:30:00.410Z,100809.91
2022-11-24T07:33:03.038Z,100813.13
2022-11-24T07:36:06.564Z,100813.91
2022-11-24T07:39:07.892Z,100813.91
2022-11-24T07:42:09.226Z,100832.72
2022-11-24T07:45:10.837Z,100835.38
2022-11-24T07:48:12.193Z,100832.81
2022-11-24T07:51:13.539Z,100840.53
2022-11-24T07:54:14.870Z,100840.38
2022-11-24T07:57:16.204Z,100850.34
2022-11-24T08:00:17.939Z,100856.09
2022-11-24T08:03:19.307Z,100860.84
2022-11-24T08:06:27.731Z,100859.66
2022-11-24T08:09:33.915Z,100870.53
2022-11-24T08:12:35.280Z,100865.25
2022-11-24T08:15:36.639Z,100869.41
2022-11-24T08:18:39.003Z,100868.44
2022-11-24T08:21:40.384Z,100876.88
2022-11-24T08:24:41.730Z,100874.19
2022-11-24T08:27:43.076Z,100879.09
2022-11-24T08:30:44.459Z,100877.13
2022-11-24T08:33:46.548Z,100884.53
2022-11-24T08:36:47.896Z,100881.78
2022-11-24T08:39:49.279Z,100887.63
2022-11-24T08:42:50.629Z,100889.97
2022-11-24T08:45:52.084Z,100896.59
2022-11-24T08:48:54.610Z,100896.31
2022-11-24T08:51:57.812Z,100897.72
2022-11-24T08:54:59.145Z,100897.44
2022-11-24T08:58:00.506Z,100906.56
2022-11-24T09:01:12.701Z,100911.50
2022-11-24T09:04:14.148Z,100910.41
2022-11-24T09:07:15.592Z,100910.25
2022-11-24T09:10:17.379Z,100906.63
2022-11-24T09:13:18.750Z,100914.97
2022-11-24T09:16:23.169Z,100918.22
2022-11-24T09:19:24.628Z,100917.97
2022-11-24T09:22:25.933Z,100922.81
2022-11-24T09:25:27.264Z,100925.19
2022-11-24T09:28:28.593Z,100924.09
2022-11-24T09:31:32.590Z,100928.22
2022-11-24T09:34:34.042Z,100926.38
2022-11-24T09:37:35.389Z,100921.13
2022-11-24T09:40:36.757Z,100921.63
2022-11-24T09:43:46.785Z,100927.38
2022-11-24T09:47:13.261Z,100921.88
2022-11-24T09:50:25.114Z,100923.25
2022-11-24T09:54:04.986Z,100926.47
2022-11-24T09:57:07.197Z,100921.84
2022-11-24T10:00:15.126Z,100921.84
2022-11-24T10:03:31.695Z,100918.09
2022-11-24T10:06:44.211Z,100927.59
2022-11-24T10:09:57.343Z,100933.31
2022-11-24T10:13:20.879Z,100938.91
2022-11-24T10:16:51.505Z,100941.72
2022-11-24T10:20:09.264Z,100942.84
2022-11-24T10:23:29.188Z,100949.56
2022-11-24T10:26:47.275Z,100948.19
2022-11-24T10:29:51.964Z,100943.22
2022-11-24T10:33:01.336Z,100938.19
2022-11-24T10:36:19.015Z,100937.03
2022-11-24T10:39:52.882Z,100941.75
2022-11-24T10:42:57.245Z,100946.75
2022-11-24T10:46:10.877Z,100945.94
2022-11-24T10:49:21.729Z,100946.00
2022-11-24T10:52:24.920Z,100947.41
2022-11-24T10:55:26.317Z,100942.53
2022-11-24T10:58:38.431Z,100944.97
2022-11-24T11:01:40.088Z,100948.78
2022-11-24T11:04:41.433Z,100952.19
2022-11-24T11:07:42.848Z,100951.06
2022-11-24T11:10:47.059Z,100957.19
2022-11-24T11:13:49.573Z,100959.09
2022-11-24T11:16:53.753Z,100959.03
2022-11-24T11:20:02.921Z,100960.97
2022-11-24T11:23:16.220Z,100976.69
2022-11-24T11:26:26.517Z,100975.28
2022-11-24T11:36:22.411Z,100990.34
2022-11-24T11:39:28.992Z,100995.00
2022-11-24T11:43:03.868Z,100992.94
2022-11-24T11:46:11.349Z,100998.09
2022-11-24T11:49:13.746Z,100995.25
2022-11-24T11:52:37.003Z,101002.19
2022-11-24T11:55:53.486Z,101004.03
2022-11-24T11:59:27.331Z,101010.41
2022-11-24T12:02:28.750Z,101013.25
2022-11-24T12:05:43.336Z,101021.34
2022-11-24T12:09:21.639Z,101020.72
2022-11-24T12:12:55.411Z,101010.63
2022-11-24T12:16:05.887Z,101010.47
2022-11-24T12:19:34.186Z,101020.31
2022-11-24T12:22:53.712Z,101017.66
2022-11-24T12:26:09.062Z,101027.06
2022-11-24T12:29:43.609Z,101023.28
2022-11-24T12:32:47.667Z,101033.69
2022-11-24T12:35:53.555Z,101035.78
2022-11-24T12:39:05.317Z,101038.28
2022-11-24T12:42:19.926Z,101039.97
2022-11-24T12:45:39.241Z,101044.69
2022-11-24T12:49:01.309Z,101041.63
2022-11-24T12:52:23.901Z,101049.22
2022-11-24T12:55:27.618Z,101049.91
2022-11-24T12:58:39.649Z,101054.81
2022-11-24T13:01:53.464Z,101060.84
2022-11-24T13:05:12.841Z,101068.09
2022-11-24T13:08:14.922Z,101074.13
2022-11-24T13:11:22.119Z,101075.09
2022-11-24T13:14:30.148Z,101076.78
2022-11-24T13:17:43.527Z,101075.00
2022-11-24T13:20:54.649Z,101075.25
2022-11-24T13:24:21.414Z,101088.28
2022-11-24T13:27:28.171Z,101089.16
2022-11-24T13:30:35.405Z,101094.31
2022-11-24T13:33:37.518Z,101098.66
2022-11-24T13:36:52.452Z,101102.06
2022-11-24T13:39:57.546Z,101107.94
2022-11-24T13:42:58.856Z,101107.03
2022-11-24T13:46:00.195Z,101108.69
2022-11-24T13:49:01.503Z,101114.03
2022-11-24T13:52:40.201Z,101115.88
2022-11-24T13:56:19.951Z,101108.28
2022-11-24T13:59:33.688Z,101112.78
2022-11-24T14:02:35.172Z,101121.50
2022-11-24T14:05:39.271Z,101118.91
2022-11-24T14:08:40.724Z,101127.53
2022-11-24T14:11:42.315Z,101125.78
2022-11-24T14:14:46.019Z,101136.22
2022-11-24T14:17:47.361Z,101134.81
2022-11-24T14:20:48.802Z,101146.09
2022-11-24T14:24:08.963Z,101153.03
2022-11-24T14:27:17.469Z,101151.38
2022-11-24T14:30:22.293Z,101151.38
2022-11-24T14:33:23.660Z,101163.38
2022-11-24T14:36:25.010Z,101159.13
2022-11-24T14:39:27.554Z,101167.91
2022-11-24T14:42:28.988Z,101174.09
2022-11-24T14:45:37.493Z,101182.69
2022-11-24T14:48:47.713Z,101186.28
2022-11-24T14:51:58.187Z,101188.94
2022-11-24T14:55:17.325Z,101186.47
2022-11-24T14:58:31.689Z,101184.88
2022-11-24T15:01:34.475Z,101188.25
2022-11-24T15:05:02.577Z,101193.69
2022-11-24T15:08:04.968Z,101202.22
2022-11-24T15:11:07.423Z,101203.09
2022-11-24T15:14:31.563Z,101203.34
2022-11-24T15:17:33.497Z,101199.88
2022-11-24T15:20:46.055Z,101192.19
2022-11-24T15:24:14.821Z,101193.47
2022-11-24T15:27:16.255Z,101191.78
2022-11-24T15:30:17.710Z,101191.06
2022-11-24T15:33:19.926Z,101195.63
2022-11-24T15:36:21.317Z,101203.72
2022-11-24T15:39:22.675Z,101198.03
2022-11-24T15:42:24.016Z,101205.19
2022-11-24T15:45:26.176Z,101206.34
2022-11-24T15:48:28.615Z,101196.59
2022-11-24T15:51:30.472Z,101215.19
2022-11-24T15:54:32.098Z,101213.88
2022-11-24T15:57:34.088Z,101206.59
2022-11-24T16:00:35.448Z,101207.81
2022-11-24T16:03:52.194Z,101210.78
2022-11-24T16:06:53.532Z,101223.09
2022-11-24T16:09:54.869Z,101219.16
2022-11-24T16:12:56.182Z,101222.81
2022-11-24T16:15:57.600Z,101222.16
2022-11-24T16:18:58.965Z,101226.56
2022-11-24T16:22:00.314Z,101227.56
2022-11-24T16:25:01.650Z,101225.97
2022-11-24T16:28:03.054Z,101233.91
2022-11-24T16:31:04.493Z,101231.53
2022-11-24T16:34:05.905Z,101241.94
2022-11-24T16:37:07.283Z,101240.41
2022-11-24T16:40:09.134Z,101240.44
2022-11-24T16:43:10.651Z,101243.22
2022-11-24T16:46:20.891Z,101258.66
2022-11-24T16:49:22.307Z,101262.25
2022-11-24T16:52:23.666Z,101260.81
2022-11-24T16:55:25.015Z,101268.03
2022-11-24T16:58:26.428Z,101277.69
2022-11-24T17:01:27.859Z,101285.56
2022-11-24T17:04:29.227Z,101288.44
2022-11-24T17:07:30.670Z,101285.13
2022-11-24T17:10:32.050Z,101282.91
2022-11-24T17:13:33.891Z,101290.75
2022-11-24T17:16:37.352Z,101301.75
2022-11-24T17:19:38.732Z,101304.06
2022-11-24T17:22:40.069Z,101304.53
2022-11-24T17:25:41.479Z,101308.34
2022-11-24T17:28:43.788Z,101308.16
2022-11-24T17:31:45.489Z,101299.53
2022-11-24T17:34:46.858Z,101302.06
2022-11-24T17:37:48.201Z,101307.22
2022-11-24T17:40:49.561Z,101308.16
2022-11-24T17:43:52.709Z,101312.41
2022-11-24T17:46:54.096Z,101326.00
2022-11-24T17:49:55.482Z,101327.47
2022-11-24T17:52:56.805Z,101331.50
2022-11-24T17:55:59.605Z,101329.56
2022-11-24T17:59:00.993Z,101326.91
2022-11-24T18:02:02.392Z,101324.19
2022-11-24T18:05:04.069Z,101327.56
2022-11-24T18:08:05.648Z,101333.44
2022-11-24T18:11:13.330Z,101327.34
2022-11-24T18:14:14.688Z,101327.34
2022-11-24T18:17:16.050Z,101335.81
2022-11-24T18:20:17.464Z,101341.66
2022-11-24T18:23:18.798Z,101342.41
2022-11-24T18:26:20.167Z,101341.50
2022-11-24T18:29:21.479Z,101343.13
2022-11-24T18:32:22.815Z,101332.84
2022-11-24T18:35:24.167Z,101333.69
2022-11-24T18:38:28.880Z,101336.25
2022-11-24T18:41:30.503Z,101335.44
2022-11-24T18:44:32.107Z,101339.69
2022-11-24T18:47:33.812Z,101339.69
2022-11-24T18:50:35.196Z,101347.38
2022-11-24T18:53:36.549Z,101356.75
2022-11-24T18:56:37.932Z,101358.34
2022-11-24T18:59:39.291Z,101354.88
2022-11-24T19:02:40.680Z,101348.88
2022-11-24T19:05:42.077Z,101348.78
2022-11-24T19:08:43.717Z,101342.78
2022-11-24T19:11:46.771Z,101350.44
2022-11-24T19:14:48.093Z,101348.72
2022-11-24T19:17:49.480Z,101342.66
2022-11-24T19:20:50.859Z,101345.25
2022-11-24T19:23:52.713Z,101341.75
2022-11-24T19:26:54.418Z,101339.19
2022-11-24T19:29:55.745Z,101344.41
2022-11-24T19:32:57.073Z,101342.88
2022-11-24T19:36:06.306Z,101346.72
2022-11-24T19:39:07.625Z,101351.66
2022-11-24T19:42:08.963Z,101349.63
2022-11-24T19:45:10.543Z,101360.28
2022-11-24T19:48:11.909Z,101363.13
2022-11-24T19:51:16.405Z,101373.66
2022-11-24T19:54:17.814Z,101371.34
2022-11-24T19:57:19.193Z,101367.31
2022-11-24T20:00:20.764Z,101363.19
2022-11-24T20:03:22.162Z,101370.03
2022-11-24T20:06:23.524Z,101374.44
2022-11-24T20:09:24.858Z,101388.19
2022-11-24T20:12:26.180Z,101388.31
2022-11-24T20:15:27.523Z,101383.34
2022-11-24T20:18:30.013Z,101387.78
2022-11-24T20:21:32.248Z,101388.84
2022-11-24T20:24:33.747Z,101393.22
2022-11-24T20:27:35.268Z,101390.75
2022-11-24T20:30:36.624Z,101393.47
2022-11-24T20:33:38.986Z,101402.16
2022-11-24T20:36:42.500Z,101397.16
2022-11-24T20:39:43.840Z,101395.56
2022-11-24T20:42:45.236Z,101393.09
2022-11-24T20:45:46.667Z,101403.44
2022-11-24T20:48:48.916Z,101399.19
2022-11-24T20:51:50.285Z,101406.84
2022-11-24T20:54:51.617Z,101411.16
2022-11-24T20:57:53.084Z,101411.28
2022-11-24T21:00:54.536Z,101415.66
2022-11-24T21:03:58.606Z,101420.03
2022-11-24T21:06:59.972Z,101431.19
2022-11-24T21:10:01.695Z,101432.09
2022-11-24T21:13:03.128Z,101448.34
2022-11-24T21:16:14.068Z,101447.59
2022-11-24T21:19:15.897Z,101445.19
2022-11-24T21:22:17.227Z,101454.63
2022-11-24T21:25:18.582Z,101449.56
2022-11-24T21:28:19.901Z,101452.19
2022-11-24T21:31:21.566Z,101454.88
2022-11-24T21:34:23.003Z,101452.38
2022-11-24T21:37:24.362Z,101454.88
2022-11-24T21:40:25.796Z,101453.06
2022-11-24T21:43:28.491Z,101459.81
2022-11-24T21:46:30.283Z,101455.53
2022-11-24T21:49:31.661Z,101455.50
2022-11-24T21:52:33.072Z,101459.78
2022-11-24T21:55:34.439Z,101456.44
2022-11-24T21:58:35.803Z,101453.06
2022-11-24T22:01:37.190Z,101454.84
2022-11-24T22:04:38.543Z,101454.91
2022-11-24T22:07:39.939Z,101451.53
2022-11-24T22:10:41.374Z,101448.97
2022-11-24T22:13:43.727Z,101455.84
2022-11-24T22:16:45.199Z,101443.25
2022-11-24T22:19:46.599Z,101451.84
2022-11-24T22:22:47.972Z,101449.38
2022-11-24T22:25:49.304Z,101451.22
2022-11-24T22:28:51.618Z,101445.34
2022-11-24T22:31:53.045Z,101455.59
2022-11-24T22:34:54.517Z,101450.53
2022-11-24T22:37:55.893Z,101445.47
2022-11-24T22:41:05.309Z,101440.31
2022-11-24T22:44:06.677Z,101437.78
2022-11-24T22:47:08.070Z,101442.78
2022-11-24T22:50:09.853Z,101440.97
2022-11-24T22:53:11.353Z,101444.31
2022-11-24T22:56:12.742Z,101438.44
2022-11-24T22:59:14.099Z,101433.31
2022-11-24T23:02:15.486Z,101436.75
2022-11-24T23:05:20.558Z,101441.88
2022-11-24T23:08:22.230Z,101432.53
2022-11-24T23:11:33.817Z,101444.44
2022-11-24T23:14:37.876Z,101440.19
2022-11-24T23:17:39.270Z,101433.38
2022-11-24T23:20:40.658Z,101443.59
2022-11-24T23:23:42.610Z,101433.38
2022-11-24T23:26:43.946Z,101446.13
2022-11-24T23:29:45.284Z,101440.19
2022-11-24T23:32:46.634Z,101435.97
2022-11-24T23:35:48.053Z,101430.94
2022-11-24T23:38:49.570Z,101436.09
2022-11-24T23:41:50.926Z,101432.66
2022-11-24T23:44:52.267Z,101432.75
2022-11-24T23:47:53.878Z,101440.41
2022-11-24T23:50:55.280Z,101427.69
2022-11-24T23:53:57.087Z,101424.31
2022-11-24T23:56:58.399Z,101425.16
2022-11-24T23:59:59.747Z,101414.09
